sensor_id;sensor_type;location;lat;lon;timestamp;P1;durP1;ratioP1;P2;durP2;ratioP2
24761;SDS011;12865;51.934;10.330;2023-04-12T00:01:48;4.18;;;1.88;;
24761;SDS011;12865;51.934;10.330;2023-04-12T00:04:34;4.97;;;1.75;;
24761;SDS011;12865;51.934;10.330;2023-04-12T00:07:20;4.97;;;1.98;;
24761;SDS011;12865;51.934;10.330;2023-04-12T00:10:07;4.85;;;2.00;;
24761;SDS011;12865;51.934;10.330;2023-04-12T00:12:53;7.15;;;1.80;;
24761;SDS011;12865;51.934;10.330;2023-04-12T00:15:39;4.82;;;1.80;;
24761;SDS011;12865;51.934;10.330;2023-04-12T00:18:25;2.85;;;1.88;;
24761;SDS011;12865;51.934;10.330;2023-04-12T00:21:11;6.93;;;1.92;;
24761;SDS011;12865;51.934;10.330;2023-04-12T00:23:58;5.00;;;1.90;;
24761;SDS011;12865;51.934;10.330;2023-04-12T00:26:44;2.75;;;1.50;;
24761;SDS011;12865;51.934;10.330;2023-04-12T00:29:29;2.10;;;1.60;;
24761;SDS011;12865;51.934;10.330;2023-04-12T00:32:16;8.68;;;2.65;;
24761;SDS011;12865;51.934;10.330;2023-04-12T00:35:01;4.43;;;1.67;;
24761;SDS011;12865;51.934;10.330;2023-04-12T00:37:47;8.73;;;2.10;;
24761;SDS011;12865;51.934;10.330;2023-04-12T00:40:33;6.53;;;1.90;;
24761;SDS011;12865;51.934;10.330;2023-04-12T00:43:18;7.05;;;1.88;;
24761;SDS011;12865;51.934;10.330;2023-04-12T00:46:04;3.65;;;1.75;;
24761;SDS011;12865;51.934;10.330;2023-04-12T00:48:50;4.88;;;1.90;;
24761;SDS011;12865;51.934;10.330;2023-04-12T00:51:36;6.78;;;2.00;;
24761;SDS011;12865;51.934;10.330;2023-04-12T00:54:22;3.88;;;1.70;;
24761;SDS011;12865;51.934;10.330;2023-04-12T00:57:10;6.30;;;1.95;;
24761;SDS011;12865;51.934;10.330;2023-04-12T00:59:55;5.35;;;1.80;;
24761;SDS011;12865;51.934;10.330;2023-04-12T01:02:43;4.40;;;2.03;;
24761;SDS011;12865;51.934;10.330;2023-04-12T01:05:35;3.28;;;1.80;;
24761;SDS011;12865;51.934;10.330;2023-04-12T01:11:53;5.53;;;2.10;;
24761;SDS011;12865;51.934;10.330;2023-04-12T01:17:50;4.47;;;2.08;;
24761;SDS011;12865;51.934;10.330;2023-04-12T01:20:43;6.57;;;2.25;;
24761;SDS011;12865;51.934;10.330;2023-04-12T01:26:35;4.95;;;2.13;;
24761;SDS011;12865;51.934;10.330;2023-04-12T01:29:29;9.50;;;2.75;;
24761;SDS011;12865;51.934;10.330;2023-04-12T01:32:16;4.05;;;2.20;;
24761;SDS011;12865;51.934;10.330;2023-04-12T01:35:05;8.48;;;2.40;;
24761;SDS011;12865;51.934;10.330;2023-04-12T01:37:53;5.72;;;2.10;;
24761;SDS011;12865;51.934;10.330;2023-04-12T01:40:38;7.47;;;2.33;;
24761;SDS011;12865;51.934;10.330;2023-04-12T01:43:27;7.22;;;2.88;;
24761;SDS011;12865;51.934;10.330;2023-04-12T01:46:13;7.07;;;2.53;;
24761;SDS011;12865;51.934;10.330;2023-04-12T01:49:01;7.57;;;2.10;;
24761;SDS011;12865;51.934;10.330;2023-04-12T01:52:00;8.15;;;2.58;;
24761;SDS011;12865;51.934;10.330;2023-04-12T01:54:53;4.40;;;1.90;;
24761;SDS011;12865;51.934;10.330;2023-04-12T01:57:42;6.77;;;2.80;;
24761;SDS011;12865;51.934;10.330;2023-04-12T02:00:29;7.85;;;2.55;;
24761;SDS011;12865;51.934;10.330;2023-04-12T02:03:18;5.60;;;2.10;;
24761;SDS011;12865;51.934;10.330;2023-04-12T02:06:06;5.10;;;2.25;;
24761;SDS011;12865;51.934;10.330;2023-04-12T02:08:56;5.25;;;2.80;;
24761;SDS011;12865;51.934;10.330;2023-04-12T02:11:47;5.95;;;2.20;;
24761;SDS011;12865;51.934;10.330;2023-04-12T02:14:33;6.72;;;2.90;;
24761;SDS011;12865;51.934;10.330;2023-04-12T02:17:20;4.28;;;2.10;;
24761;SDS011;12865;51.934;10.330;2023-04-12T02:20:05;4.32;;;1.80;;
24761;SDS011;12865;51.934;10.330;2023-04-12T02:22:54;7.03;;;2.15;;
24761;SDS011;12865;51.934;10.330;2023-04-12T02:25:44;6.55;;;2.35;;
24761;SDS011;12865;51.934;10.330;2023-04-12T02:28:31;5.00;;;2.30;;
24761;SDS011;12865;51.934;10.330;2023-04-12T02:31:18;3.47;;;1.80;;
24761;SDS011;12865;51.934;10.330;2023-04-12T02:34:04;6.05;;;2.05;;
24761;SDS011;12865;51.934;10.330;2023-04-12T02:36:50;5.05;;;2.17;;
24761;SDS011;12865;51.934;10.330;2023-04-12T02:39:36;7.50;;;1.95;;
24761;SDS011;12865;51.934;10.330;2023-04-12T02:42:21;6.30;;;2.53;;
24761;SDS011;12865;51.934;10.330;2023-04-12T02:45:08;6.32;;;2.22;;
24761;SDS011;12865;51.934;10.330;2023-04-12T02:47:54;4.88;;;2.00;;
24761;SDS011;12865;51.934;10.330;2023-04-12T02:50:40;3.85;;;2.30;;
24761;SDS011;12865;51.934;10.330;2023-04-12T02:53:26;3.25;;;1.85;;
24761;SDS011;12865;51.934;10.330;2023-04-12T02:56:11;6.63;;;2.22;;
24761;SDS011;12865;51.934;10.330;2023-04-12T02:58:57;4.85;;;1.98;;
24761;SDS011;12865;51.934;10.330;2023-04-12T03:01:43;5.00;;;1.95;;
24761;SDS011;12865;51.934;10.330;2023-04-12T03:04:32;3.85;;;2.25;;
24761;SDS011;12865;51.934;10.330;2023-04-12T03:07:18;5.68;;;2.10;;
24761;SDS011;12865;51.934;10.330;2023-04-12T03:10:05;3.05;;;2.00;;
24761;SDS011;12865;51.934;10.330;2023-04-12T03:12:51;7.60;;;2.15;;
24761;SDS011;12865;51.934;10.330;2023-04-12T03:15:37;4.00;;;1.73;;
24761;SDS011;12865;51.934;10.330;2023-04-12T03:18:23;8.10;;;2.00;;
24761;SDS011;12865;51.934;10.330;2023-04-12T03:21:09;7.50;;;2.58;;
24761;SDS011;12865;51.934;10.330;2023-04-12T03:23:56;6.75;;;2.65;;
24761;SDS011;12865;51.934;10.330;2023-04-12T03:26:42;5.72;;;2.63;;
24761;SDS011;12865;51.934;10.330;2023-04-12T03:29:28;7.50;;;2.42;;
24761;SDS011;12865;51.934;10.330;2023-04-12T03:32:14;4.22;;;2.50;;
24761;SDS011;12865;51.934;10.330;2023-04-12T03:35:00;5.38;;;2.50;;
24761;SDS011;12865;51.934;10.330;2023-04-12T03:37:46;7.00;;;2.72;;
24761;SDS011;12865;51.934;10.330;2023-04-12T03:40:32;6.70;;;2.90;;
24761;SDS011;12865;51.934;10.330;2023-04-12T03:43:17;4.25;;;2.80;;
24761;SDS011;12865;51.934;10.330;2023-04-12T03:46:03;7.70;;;2.15;;
24761;SDS011;12865;51.934;10.330;2023-04-12T03:48:49;4.05;;;2.33;;
24761;SDS011;12865;51.934;10.330;2023-04-12T03:51:36;4.35;;;2.35;;
24761;SDS011;12865;51.934;10.330;2023-04-12T03:54:26;5.13;;;2.33;;
24761;SDS011;12865;51.934;10.330;2023-04-12T03:57:12;3.55;;;2.00;;
24761;SDS011;12865;51.934;10.330;2023-04-12T03:59:58;4.38;;;1.90;;
24761;SDS011;12865;51.934;10.330;2023-04-12T04:02:43;4.90;;;2.72;;
24761;SDS011;12865;51.934;10.330;2023-04-12T04:05:31;6.57;;;2.60;;
24761;SDS011;12865;51.934;10.330;2023-04-12T04:08:17;6.47;;;2.35;;
24761;SDS011;12865;51.934;10.330;2023-04-12T04:11:03;5.85;;;2.70;;
24761;SDS011;12865;51.934;10.330;2023-04-12T04:13:49;6.70;;;2.70;;
24761;SDS011;12865;51.934;10.330;2023-04-12T04:16:38;5.95;;;2.10;;
24761;SDS011;12865;51.934;10.330;2023-04-12T04:19:23;4.57;;;2.10;;
24761;SDS011;12865;51.934;10.330;2023-04-12T04:22:09;9.07;;;2.78;;
24761;SDS011;12865;51.934;10.330;2023-04-12T04:24:58;6.43;;;2.60;;
24761;SDS011;12865;51.934;10.330;2023-04-12T04:27:45;7.45;;;2.58;;
24761;SDS011;12865;51.934;10.330;2023-04-12T04:30:31;7.43;;;2.33;;
24761;SDS011;12865;51.934;10.330;2023-04-12T04:33:18;7.07;;;2.42;;
24761;SDS011;12865;51.934;10.330;2023-04-12T04:36:04;7.28;;;2.40;;
24761;SDS011;12865;51.934;10.330;2023-04-12T04:38:54;6.85;;;2.65;;
24761;SDS011;12865;51.934;10.330;2023-04-12T04:41:41;4.18;;;2.58;;
24761;SDS011;12865;51.934;10.330;2023-04-12T04:44:27;5.53;;;2.38;;
24761;SDS011;12865;51.934;10.330;2023-04-12T04:47:12;3.53;;;2.53;;
24761;SDS011;12865;51.934;10.330;2023-04-12T04:49:58;5.80;;;2.40;;
24761;SDS011;12865;51.934;10.330;2023-04-12T04:52:44;8.55;;;2.53;;
24761;SDS011;12865;51.934;10.330;2023-04-12T04:55:32;5.38;;;2.40;;
24761;SDS011;12865;51.934;10.330;2023-04-12T04:58:18;7.53;;;2.03;;
24761;SDS011;12865;51.934;10.330;2023-04-12T05:01:03;3.50;;;1.98;;
24761;SDS011;12865;51.934;10.330;2023-04-12T05:03:49;2.97;;;1.70;;
24761;SDS011;12865;51.934;10.330;2023-04-12T05:06:36;3.70;;;1.35;;
24761;SDS011;12865;51.934;10.330;2023-04-12T05:09:21;5.75;;;1.60;;
24761;SDS011;12865;51.934;10.330;2023-04-12T05:12:07;5.10;;;1.35;;
24761;SDS011;12865;51.934;10.330;2023-04-12T05:14:53;5.82;;;1.63;;
24761;SDS011;12865;51.934;10.330;2023-04-12T05:17:38;8.32;;;1.80;;
24761;SDS011;12865;51.934;10.330;2023-04-12T05:20:25;6.05;;;1.83;;
24761;SDS011;12865;51.934;10.330;2023-04-12T05:23:10;4.85;;;1.60;;
24761;SDS011;12865;51.934;10.330;2023-04-12T05:25:56;8.52;;;1.50;;
24761;SDS011;12865;51.934;10.330;2023-04-12T05:28:42;3.50;;;1.27;;
24761;SDS011;12865;51.934;10.330;2023-04-12T05:31:27;4.07;;;1.63;;
24761;SDS011;12865;51.934;10.330;2023-04-12T05:34:13;11.93;;;1.98;;
24761;SDS011;12865;51.934;10.330;2023-04-12T05:36:58;6.22;;;1.50;;
24761;SDS011;12865;51.934;10.330;2023-04-12T05:39:44;4.22;;;2.17;;
24761;SDS011;12865;51.934;10.330;2023-04-12T05:42:30;7.32;;;1.67;;
24761;SDS011;12865;51.934;10.330;2023-04-12T05:45:16;3.42;;;1.25;;
24761;SDS011;12865;51.934;10.330;2023-04-12T05:48:02;6.50;;;1.73;;
24761;SDS011;12865;51.934;10.330;2023-04-12T05:50:51;7.13;;;1.60;;
24761;SDS011;12865;51.934;10.330;2023-04-12T05:53:37;5.75;;;1.33;;
24761;SDS011;12865;51.934;10.330;2023-04-12T05:56:22;7.05;;;1.60;;
24761;SDS011;12865;51.934;10.330;2023-04-12T05:59:08;3.65;;;1.10;;
24761;SDS011;12865;51.934;10.330;2023-04-12T06:01:56;5.60;;;1.75;;
24761;SDS011;12865;51.934;10.330;2023-04-12T06:04:42;6.32;;;1.85;;
24761;SDS011;12865;51.934;10.330;2023-04-12T06:07:27;5.75;;;1.50;;
24761;SDS011;12865;51.934;10.330;2023-04-12T06:10:14;5.20;;;1.77;;
24761;SDS011;12865;51.934;10.330;2023-04-12T06:13:01;6.60;;;2.10;;
24761;SDS011;12865;51.934;10.330;2023-04-12T06:15:47;4.55;;;1.92;;
24761;SDS011;12865;51.934;10.330;2023-04-12T06:18:32;4.90;;;1.60;;
24761;SDS011;12865;51.934;10.330;2023-04-12T06:21:18;6.00;;;1.63;;
24761;SDS011;12865;51.934;10.330;2023-04-12T06:24:04;4.72;;;1.48;;
24761;SDS011;12865;51.934;10.330;2023-04-12T06:26:50;8.93;;;2.03;;
24761;SDS011;12865;51.934;10.330;2023-04-12T06:29:36;7.50;;;1.90;;
24761;SDS011;12865;51.934;10.330;2023-04-12T06:32:21;3.88;;;1.67;;
24761;SDS011;12865;51.934;10.330;2023-04-12T06:35:07;4.88;;;1.60;;
24761;SDS011;12865;51.934;10.330;2023-04-12T06:37:53;3.67;;;1.58;;
24761;SDS011;12865;51.934;10.330;2023-04-12T06:40:39;3.40;;;1.33;;
24761;SDS011;12865;51.934;10.330;2023-04-12T06:43:25;6.50;;;1.92;;
24761;SDS011;12865;51.934;10.330;2023-04-12T06:46:11;4.95;;;1.50;;
24761;SDS011;12865;51.934;10.330;2023-04-12T06:48:59;7.45;;;2.05;;
24761;SDS011;12865;51.934;10.330;2023-04-12T06:51:45;4.15;;;1.13;;
24761;SDS011;12865;51.934;10.330;2023-04-12T06:54:31;7.18;;;1.77;;
24761;SDS011;12865;51.934;10.330;2023-04-12T06:57:17;5.32;;;1.50;;
24761;SDS011;12865;51.934;10.330;2023-04-12T07:00:03;5.50;;;1.27;;
24761;SDS011;12865;51.934;10.330;2023-04-12T07:02:49;4.53;;;1.40;;
24761;SDS011;12865;51.934;10.330;2023-04-12T07:05:38;6.63;;;1.73;;
24761;SDS011;12865;51.934;10.330;2023-04-12T07:08:24;4.43;;;1.50;;
24761;SDS011;12865;51.934;10.330;2023-04-12T07:11:09;8.98;;;1.63;;
24761;SDS011;12865;51.934;10.330;2023-04-12T07:13:55;1.80;;;1.35;;
24761;SDS011;12865;51.934;10.330;2023-04-12T07:16:43;5.40;;;1.60;;
24761;SDS011;12865;51.934;10.330;2023-04-12T07:19:29;5.38;;;1.60;;
24761;SDS011;12865;51.934;10.330;2023-04-12T07:22:15;4.38;;;1.77;;
24761;SDS011;12865;51.934;10.330;2023-04-12T07:25:01;3.88;;;1.40;;
24761;SDS011;12865;51.934;10.330;2023-04-12T07:27:46;5.20;;;1.25;;
24761;SDS011;12865;51.934;10.330;2023-04-12T07:30:32;4.40;;;1.77;;
24761;SDS011;12865;51.934;10.330;2023-04-12T07:33:18;5.65;;;1.80;;
24761;SDS011;12865;51.934;10.330;2023-04-12T07:36:04;4.18;;;1.33;;
24761;SDS011;12865;51.934;10.330;2023-04-12T07:38:50;3.85;;;1.63;;
24761;SDS011;12865;51.934;10.330;2023-04-12T07:41:40;6.65;;;1.70;;
24761;SDS011;12865;51.934;10.330;2023-04-12T07:44:27;3.92;;;1.80;;
24761;SDS011;12865;51.934;10.330;2023-04-12T07:47:13;5.22;;;1.70;;
24761;SDS011;12865;51.934;10.330;2023-04-12T07:49:58;2.72;;;1.40;;
24761;SDS011;12865;51.934;10.330;2023-04-12T07:52:44;5.68;;;1.40;;
24761;SDS011;12865;51.934;10.330;2023-04-12T07:55:30;4.78;;;1.42;;
24761;SDS011;12865;51.934;10.330;2023-04-12T07:58:16;4.25;;;1.63;;
24761;SDS011;12865;51.934;10.330;2023-04-12T08:01:02;4.10;;;1.80;;
24761;SDS011;12865;51.934;10.330;2023-04-12T08:03:48;4.28;;;1.50;;
24761;SDS011;12865;51.934;10.330;2023-04-12T08:06:33;6.78;;;1.80;;
24761;SDS011;12865;51.934;10.330;2023-04-12T08:09:19;3.72;;;1.40;;
24761;SDS011;12865;51.934;10.330;2023-04-12T08:12:05;5.20;;;1.60;;
24761;SDS011;12865;51.934;10.330;2023-04-12T08:14:51;5.72;;;1.98;;
24761;SDS011;12865;51.934;10.330;2023-04-12T08:17:37;5.00;;;1.25;;
24761;SDS011;12865;51.934;10.330;2023-04-12T08:20:22;3.10;;;1.38;;
24761;SDS011;12865;51.934;10.330;2023-04-12T08:23:11;6.03;;;1.52;;
24761;SDS011;12865;51.934;10.330;2023-04-12T08:25:57;5.07;;;1.63;;
24761;SDS011;12865;51.934;10.330;2023-04-12T08:28:47;5.45;;;1.70;;
24761;SDS011;12865;51.934;10.330;2023-04-12T08:31:33;6.90;;;1.67;;
24761;SDS011;12865;51.934;10.330;2023-04-12T08:34:19;4.95;;;1.45;;
24761;SDS011;12865;51.934;10.330;2023-04-12T08:37:06;4.63;;;1.40;;
24761;SDS011;12865;51.934;10.330;2023-04-12T08:39:52;4.53;;;2.00;;
24761;SDS011;12865;51.934;10.330;2023-04-12T08:42:37;5.28;;;1.55;;
24761;SDS011;12865;51.934;10.330;2023-04-12T08:45:23;2.70;;;1.48;;
24761;SDS011;12865;51.934;10.330;2023-04-12T08:48:13;4.68;;;1.60;;
24761;SDS011;12865;51.934;10.330;2023-04-12T08:51:00;4.63;;;2.67;;
24761;SDS011;12865;51.934;10.330;2023-04-12T08:53:46;4.30;;;1.80;;
24761;SDS011;12865;51.934;10.330;2023-04-12T08:56:32;4.00;;;1.80;;
24761;SDS011;12865;51.934;10.330;2023-04-12T08:59:18;5.07;;;2.15;;
24761;SDS011;12865;51.934;10.330;2023-04-12T09:02:04;6.00;;;1.70;;
24761;SDS011;12865;51.934;10.330;2023-04-12T09:04:50;4.53;;;1.75;;
24761;SDS011;12865;51.934;10.330;2023-04-12T09:07:37;4.72;;;2.00;;
24761;SDS011;12865;51.934;10.330;2023-04-12T09:10:33;4.40;;;2.00;;
24761;SDS011;12865;51.934;10.330;2023-04-12T09:13:33;5.18;;;2.10;;
24761;SDS011;12865;51.934;10.330;2023-04-12T09:16:35;5.90;;;2.17;;
24761;SDS011;12865;51.934;10.330;2023-04-12T09:19:34;3.88;;;1.90;;
24761;SDS011;12865;51.934;10.330;2023-04-12T09:22:33;3.92;;;1.83;;
24761;SDS011;12865;51.934;10.330;2023-04-12T09:25:39;3.92;;;1.70;;
24761;SDS011;12865;51.934;10.330;2023-04-12T09:28:29;3.25;;;1.60;;
24761;SDS011;12865;51.934;10.330;2023-04-12T09:31:15;6.03;;;2.10;;
24761;SDS011;12865;51.934;10.330;2023-04-12T09:34:08;3.30;;;1.98;;
24761;SDS011;12865;51.934;10.330;2023-04-12T09:36:54;4.15;;;2.00;;
24761;SDS011;12865;51.934;10.330;2023-04-12T09:39:40;4.55;;;1.85;;
24761;SDS011;12865;51.934;10.330;2023-04-12T09:42:27;2.60;;;2.10;;
24761;SDS011;12865;51.934;10.330;2023-04-12T09:45:19;5.05;;;2.08;;
24761;SDS011;12865;51.934;10.330;2023-04-12T09:48:17;3.28;;;1.75;;
24761;SDS011;12865;51.934;10.330;2023-04-12T09:51:05;3.33;;;1.80;;
24761;SDS011;12865;51.934;10.330;2023-04-12T09:53:51;5.28;;;1.80;;
24761;SDS011;12865;51.934;10.330;2023-04-12T09:56:37;5.30;;;1.77;;
24761;SDS011;12865;51.934;10.330;2023-04-12T09:59:26;3.97;;;1.92;;
24761;SDS011;12865;51.934;10.330;2023-04-12T10:02:19;1.70;;;1.60;;
24761;SDS011;12865;51.934;10.330;2023-04-12T10:05:11;2.42;;;1.85;;
24761;SDS011;12865;51.934;10.330;2023-04-12T10:07:59;3.05;;;1.77;;
24761;SDS011;12865;51.934;10.330;2023-04-12T10:10:45;2.13;;;1.70;;
24761;SDS011;12865;51.934;10.330;2023-04-12T10:13:31;4.25;;;1.58;;
24761;SDS011;12865;51.934;10.330;2023-04-12T10:16:17;4.57;;;2.13;;
24761;SDS011;12865;51.934;10.330;2023-04-12T10:19:05;3.20;;;1.77;;
24761;SDS011;12865;51.934;10.330;2023-04-12T10:21:52;3.47;;;1.65;;
24761;SDS011;12865;51.934;10.330;2023-04-12T10:24:37;2.97;;;1.50;;
24761;SDS011;12865;51.934;10.330;2023-04-12T10:27:24;1.40;;;1.30;;
24761;SDS011;12865;51.934;10.330;2023-04-12T10:33:14;2.90;;;1.70;;
24761;SDS011;12865;51.934;10.330;2023-04-12T10:36:01;2.20;;;1.42;;
24761;SDS011;12865;51.934;10.330;2023-04-12T10:48:07;2.47;;;1.48;;
24761;SDS011;12865;51.934;10.330;2023-04-12T10:57:01;1.92;;;1.20;;
24761;SDS011;12865;51.934;10.330;2023-04-12T10:59:51;1.67;;;1.27;;
24761;SDS011;12865;51.934;10.330;2023-04-12T11:05:55;2.60;;;1.20;;
24761;SDS011;12865;51.934;10.330;2023-04-12T11:08:45;3.20;;;1.27;;
24761;SDS011;12865;51.934;10.330;2023-04-12T11:11:33;1.77;;;1.00;;
24761;SDS011;12865;51.934;10.330;2023-04-12T11:14:24;3.03;;;0.93;;
24761;SDS011;12865;51.934;10.330;2023-04-12T11:19:59;1.45;;;0.90;;
24761;SDS011;12865;51.934;10.330;2023-04-12T11:22:46;0.70;;;0.70;;
24761;SDS011;12865;51.934;10.330;2023-04-12T11:25:34;1.55;;;0.90;;
24761;SDS011;12865;51.934;10.330;2023-04-12T11:28:20;1.50;;;0.90;;
24761;SDS011;12865;51.934;10.330;2023-04-12T11:31:07;1.35;;;1.20;;
24761;SDS011;12865;51.934;10.330;2023-04-12T11:33:53;2.00;;;1.00;;
24761;SDS011;12865;51.934;10.330;2023-04-12T11:36:38;2.42;;;1.00;;
24761;SDS011;12865;51.934;10.330;2023-04-12T11:39:26;0.90;;;0.90;;
24761;SDS011;12865;51.934;10.330;2023-04-12T11:42:13;1.27;;;0.80;;
24761;SDS011;12865;51.934;10.330;2023-04-12T11:45:01;1.95;;;1.10;;
24761;SDS011;12865;51.934;10.330;2023-04-12T11:47:47;1.52;;;0.90;;
24761;SDS011;12865;51.934;10.330;2023-04-12T11:50:32;0.70;;;0.70;;
24761;SDS011;12865;51.934;10.330;2023-04-12T11:53:18;2.35;;;0.90;;
24761;SDS011;12865;51.934;10.330;2023-04-12T11:56:05;2.92;;;1.00;;
24761;SDS011;12865;51.934;10.330;2023-04-12T11:58:54;1.88;;;1.67;;
24761;SDS011;12865;51.934;10.330;2023-04-12T12:01:40;1.23;;;0.80;;
24761;SDS011;12865;51.934;10.330;2023-04-12T12:04:27;1.65;;;1.40;;
24761;SDS011;12865;51.934;10.330;2023-04-12T12:07:14;1.63;;;0.95;;
24761;SDS011;12865;51.934;10.330;2023-04-12T12:10:01;0.85;;;0.85;;
24761;SDS011;12865;51.934;10.330;2023-04-12T12:12:47;3.03;;;2.83;;
24761;SDS011;12865;51.934;10.330;2023-04-12T12:15:32;2.08;;;1.30;;
24761;SDS011;12865;51.934;10.330;2023-04-12T12:18:18;1.05;;;0.80;;
24761;SDS011;12865;51.934;10.330;2023-04-12T12:21:12;0.90;;;0.90;;
24761;SDS011;12865;51.934;10.330;2023-04-12T12:23:58;2.45;;;1.00;;
24761;SDS011;12865;51.934;10.330;2023-04-12T12:26:44;0.70;;;0.70;;
24761;SDS011;12865;51.934;10.330;2023-04-12T12:29:35;2.28;;;0.88;;
24761;SDS011;12865;51.934;10.330;2023-04-12T12:32:21;1.30;;;0.90;;
24761;SDS011;12865;51.934;10.330;2023-04-12T12:35:08;0.98;;;0.90;;
24761;SDS011;12865;51.934;10.330;2023-04-12T12:37:55;1.63;;;0.73;;
24761;SDS011;12865;51.934;10.330;2023-04-12T12:40:43;1.10;;;1.00;;
24761;SDS011;12865;51.934;10.330;2023-04-12T12:43:28;1.38;;;1.25;;
24761;SDS011;12865;51.934;10.330;2023-04-12T12:46:14;1.20;;;1.10;;
24761;SDS011;12865;51.934;10.330;2023-04-12T12:49:01;1.25;;;0.90;;
24761;SDS011;12865;51.934;10.330;2023-04-12T12:51:47;1.00;;;0.90;;
24761;SDS011;12865;51.934;10.330;2023-04-12T12:54:34;1.98;;;0.90;;
24761;SDS011;12865;51.934;10.330;2023-04-12T12:57:20;0.90;;;0.90;;
24761;SDS011;12865;51.934;10.330;2023-04-12T13:00:06;1.13;;;1.00;;
24761;SDS011;12865;51.934;10.330;2023-04-12T13:02:54;0.80;;;0.80;;
24761;SDS011;12865;51.934;10.330;2023-04-12T13:05:40;0.70;;;0.70;;
24761;SDS011;12865;51.934;10.330;2023-04-12T13:08:26;2.78;;;2.58;;
24761;SDS011;12865;51.934;10.330;2023-04-12T13:11:12;1.75;;;1.60;;
24761;SDS011;12865;51.934;10.330;2023-04-12T13:13:58;5.50;;;5.00;;
24761;SDS011;12865;51.934;10.330;2023-04-12T13:16:43;1.55;;;0.93;;
24761;SDS011;12865;51.934;10.330;2023-04-12T13:19:30;1.42;;;1.33;;
24761;SDS011;12865;51.934;10.330;2023-04-12T13:22:15;1.45;;;1.35;;
24761;SDS011;12865;51.934;10.330;2023-04-12T13:25:01;1.30;;;1.23;;
24761;SDS011;12865;51.934;10.330;2023-04-12T13:27:47;0.80;;;0.80;;
24761;SDS011;12865;51.934;10.330;2023-04-12T13:30:33;1.92;;;0.95;;
24761;SDS011;12865;51.934;10.330;2023-04-12T13:33:19;0.88;;;0.80;;
24761;SDS011;12865;51.934;10.330;2023-04-12T13:36:05;0.90;;;0.90;;
24761;SDS011;12865;51.934;10.330;2023-04-12T13:38:51;0.98;;;0.80;;
24761;SDS011;12865;51.934;10.330;2023-04-12T13:41:36;1.10;;;0.73;;
24761;SDS011;12865;51.934;10.330;2023-04-12T13:44:22;1.33;;;0.90;;
24761;SDS011;12865;51.934;10.330;2023-04-12T13:47:08;0.75;;;0.75;;
24761;SDS011;12865;51.934;10.330;2023-04-12T13:49:53;0.73;;;0.73;;
24761;SDS011;12865;51.934;10.330;2023-04-12T13:52:39;0.82;;;0.82;;
24761;SDS011;12865;51.934;10.330;2023-04-12T13:55:25;0.77;;;0.77;;
24761;SDS011;12865;51.934;10.330;2023-04-12T13:58:10;0.80;;;0.80;;
24761;SDS011;12865;51.934;10.330;2023-04-12T14:00:56;0.70;;;0.70;;
24761;SDS011;12865;51.934;10.330;2023-04-12T14:03:43;0.80;;;0.80;;
24761;SDS011;12865;51.934;10.330;2023-04-12T14:06:30;1.30;;;1.20;;
24761;SDS011;12865;51.934;10.330;2023-04-12T14:09:22;0.82;;;0.77;;
24761;SDS011;12865;51.934;10.330;2023-04-12T14:12:12;0.85;;;0.77;;
24761;SDS011;12865;51.934;10.330;2023-04-12T14:14:58;0.60;;;0.60;;
24761;SDS011;12865;51.934;10.330;2023-04-12T14:17:43;1.40;;;1.02;;
24761;SDS011;12865;51.934;10.330;2023-04-12T14:20:29;1.17;;;1.05;;
24761;SDS011;12865;51.934;10.330;2023-04-12T14:23:15;0.82;;;0.80;;
24761;SDS011;12865;51.934;10.330;2023-04-12T14:26:01;0.80;;;0.80;;
24761;SDS011;12865;51.934;10.330;2023-04-12T14:28:47;2.00;;;0.80;;
24761;SDS011;12865;51.934;10.330;2023-04-12T14:31:34;0.80;;;0.80;;
24761;SDS011;12865;51.934;10.330;2023-04-12T14:34:20;0.85;;;0.77;;
24761;SDS011;12865;51.934;10.330;2023-04-12T14:37:06;0.60;;;0.60;;
24761;SDS011;12865;51.934;10.330;2023-04-12T14:39:52;0.90;;;0.90;;
24761;SDS011;12865;51.934;10.330;2023-04-12T14:42:38;1.35;;;0.70;;
24761;SDS011;12865;51.934;10.330;2023-04-12T14:45:24;0.85;;;0.70;;
24761;SDS011;12865;51.934;10.330;2023-04-12T14:48:11;0.95;;;0.88;;
24761;SDS011;12865;51.934;10.330;2023-04-12T14:50:57;0.68;;;0.68;;
24761;SDS011;12865;51.934;10.330;2023-04-12T14:53:43;0.70;;;0.70;;
24761;SDS011;12865;51.934;10.330;2023-04-12T14:56:28;1.75;;;0.93;;
24761;SDS011;12865;51.934;10.330;2023-04-12T14:59:14;1.50;;;1.05;;
24761;SDS011;12865;51.934;10.330;2023-04-12T15:01:59;1.02;;;0.98;;
24761;SDS011;12865;51.934;10.330;2023-04-12T15:04:46;0.95;;;0.73;;
24761;SDS011;12865;51.934;10.330;2023-04-12T15:07:33;0.98;;;0.95;;
24761;SDS011;12865;51.934;10.330;2023-04-12T15:10:19;0.82;;;0.82;;
24761;SDS011;12865;51.934;10.330;2023-04-12T15:13:05;0.90;;;0.90;;
24761;SDS011;12865;51.934;10.330;2023-04-12T15:15:51;0.90;;;0.90;;
24761;SDS011;12865;51.934;10.330;2023-04-12T15:18:37;1.02;;;0.90;;
24761;SDS011;12865;51.934;10.330;2023-04-12T15:21:23;1.13;;;1.13;;
24761;SDS011;12865;51.934;10.330;2023-04-12T15:24:09;1.05;;;0.85;;
24761;SDS011;12865;51.934;10.330;2023-04-12T15:26:55;1.20;;;1.00;;
24761;SDS011;12865;51.934;10.330;2023-04-12T15:29:41;0.88;;;0.88;;
24761;SDS011;12865;51.934;10.330;2023-04-12T15:32:27;0.70;;;0.70;;
24761;SDS011;12865;51.934;10.330;2023-04-12T15:35:13;0.93;;;0.70;;
24761;SDS011;12865;51.934;10.330;2023-04-12T15:37:59;0.75;;;0.70;;
24761;SDS011;12865;51.934;10.330;2023-04-12T15:40:44;0.60;;;0.60;;
24761;SDS011;12865;51.934;10.330;2023-04-12T15:43:30;0.73;;;0.73;;
24761;SDS011;12865;51.934;10.330;2023-04-12T15:46:16;0.70;;;0.70;;
24761;SDS011;12865;51.934;10.330;2023-04-12T15:49:01;0.85;;;0.70;;
24761;SDS011;12865;51.934;10.330;2023-04-12T15:51:48;0.70;;;0.70;;
24761;SDS011;12865;51.934;10.330;2023-04-12T15:54:34;0.50;;;0.50;;
24761;SDS011;12865;51.934;10.330;2023-04-12T15:57:19;2.10;;;0.73;;
24761;SDS011;12865;51.934;10.330;2023-04-12T16:00:05;0.57;;;0.57;;
24761;SDS011;12865;51.934;10.330;2023-04-12T16:05:51;0.68;;;0.68;;
24761;SDS011;12865;51.934;10.330;2023-04-12T16:08:37;0.60;;;0.60;;
24761;SDS011;12865;51.934;10.330;2023-04-12T16:11:23;0.70;;;0.70;;
24761;SDS011;12865;51.934;10.330;2023-04-12T16:14:08;0.82;;;0.60;;
24761;SDS011;12865;51.934;10.330;2023-04-12T16:16:54;0.70;;;0.57;;
24761;SDS011;12865;51.934;10.330;2023-04-12T16:19:43;0.73;;;0.70;;
24761;SDS011;12865;51.934;10.330;2023-04-12T16:22:29;1.45;;;0.63;;
24761;SDS011;12865;51.934;10.330;2023-04-12T16:25:15;1.38;;;0.70;;
24761;SDS011;12865;51.934;10.330;2023-04-12T16:28:01;0.70;;;0.70;;
24761;SDS011;12865;51.934;10.330;2023-04-12T16:30:46;0.70;;;0.70;;
24761;SDS011;12865;51.934;10.330;2023-04-12T16:33:34;0.80;;;0.80;;
24761;SDS011;12865;51.934;10.330;2023-04-12T16:36:21;0.73;;;0.73;;
24761;SDS011;12865;51.934;10.330;2023-04-12T16:39:07;1.17;;;0.80;;
24761;SDS011;12865;51.934;10.330;2023-04-12T16:41:55;1.48;;;0.80;;
24761;SDS011;12865;51.934;10.330;2023-04-12T16:44:41;1.13;;;0.63;;
24761;SDS011;12865;51.934;10.330;2023-04-12T16:47:26;0.80;;;0.80;;
24761;SDS011;12865;51.934;10.330;2023-04-12T16:50:12;0.80;;;0.80;;
24761;SDS011;12865;51.934;10.330;2023-04-12T16:52:57;0.77;;;0.77;;
24761;SDS011;12865;51.934;10.330;2023-04-12T16:55:44;0.60;;;0.60;;
24761;SDS011;12865;51.934;10.330;2023-04-12T16:58:33;0.70;;;0.70;;
24761;SDS011;12865;51.934;10.330;2023-04-12T17:01:19;1.15;;;0.68;;
24761;SDS011;12865;51.934;10.330;2023-04-12T17:04:05;0.77;;;0.77;;
24761;SDS011;12865;51.934;10.330;2023-04-12T17:06:51;0.70;;;0.70;;